sensor_id;sensor_type;location;lat;lon;timestamp;P1;durP1;ratioP1;P2;durP2;ratioP2
5801;SDS011;2927;49.366;8.530;2023-05-10T00:00:32;1.77;;;0.83;;
5801;SDS011;2927;49.366;8.530;2023-05-10T00:02:58;0.60;;;0.60;;
5801;SDS011;2927;49.366;8.530;2023-05-10T00:05:23;1.30;;;1.00;;
5801;SDS011;2927;49.366;8.530;2023-05-10T00:07:49;0.73;;;0.70;;
5801;SDS011;2927;49.366;8.530;2023-05-10T00:10:15;0.97;;;0.97;;
5801;SDS011;2927;49.366;8.530;2023-05-10T00:12:40;1.57;;;0.70;;
5801;SDS011;2927;49.366;8.530;2023-05-10T00:15:06;0.60;;;0.60;;
5801;SDS011;2927;49.366;8.530;2023-05-10T00:17:32;0.80;;;0.80;;
5801;SDS011;2927;49.366;8.530;2023-05-10T00:19:58;0.83;;;0.60;;
5801;SDS011;2927;49.366;8.530;2023-05-10T00:22:23;0.73;;;0.73;;
5801;SDS011;2927;49.366;8.530;2023-05-10T00:24:49;1.53;;;0.70;;
5801;SDS011;2927;49.366;8.530;2023-05-10T00:27:14;0.73;;;0.73;;
5801;SDS011;2927;49.366;8.530;2023-05-10T00:29:40;0.70;;;0.70;;
5801;SDS011;2927;49.366;8.530;2023-05-10T00:32:05;1.00;;;1.00;;
5801;SDS011;2927;49.366;8.530;2023-05-10T00:34:31;0.80;;;0.73;;
5801;SDS011;2927;49.366;8.530;2023-05-10T00:36:56;5.13;;;0.67;;
5801;SDS011;2927;49.366;8.530;2023-05-10T00:39:22;0.50;;;0.50;;
5801;SDS011;2927;49.366;8.530;2023-05-10T00:41:47;1.20;;;1.00;;
5801;SDS011;2927;49.366;8.530;2023-05-10T00:44:13;0.90;;;0.80;;
5801;SDS011;2927;49.366;8.530;2023-05-10T00:46:38;1.77;;;1.00;;
5801;SDS011;2927;49.366;8.530;2023-05-10T00:49:04;1.60;;;0.83;;
5801;SDS011;2927;49.366;8.530;2023-05-10T00:51:30;1.43;;;0.77;;
5801;SDS011;2927;49.366;8.530;2023-05-10T00:53:56;0.80;;;0.80;;
5801;SDS011;2927;49.366;8.530;2023-05-10T00:56:22;0.60;;;0.60;;
5801;SDS011;2927;49.366;8.530;2023-05-10T00:58:49;0.70;;;0.60;;
5801;SDS011;2927;49.366;8.530;2023-05-10T01:01:14;6.47;;;1.03;;
5801;SDS011;2927;49.366;8.530;2023-05-10T01:03:40;1.77;;;1.00;;
5801;SDS011;2927;49.366;8.530;2023-05-10T01:06:06;0.80;;;0.70;;
5801;SDS011;2927;49.366;8.530;2023-05-10T01:08:32;0.70;;;0.70;;
5801;SDS011;2927;49.366;8.530;2023-05-10T01:10:58;0.87;;;0.87;;
5801;SDS011;2927;49.366;8.530;2023-05-10T01:13:31;0.90;;;0.90;;
5801;SDS011;2927;49.366;8.530;2023-05-10T01:15:59;1.23;;;1.13;;
5801;SDS011;2927;49.366;8.530;2023-05-10T01:18:28;0.60;;;0.60;;
5801;SDS011;2927;49.366;8.530;2023-05-10T01:20:59;1.50;;;1.40;;
5801;SDS011;2927;49.366;8.530;2023-05-10T01:26:07;1.63;;;1.00;;
5801;SDS011;2927;49.366;8.530;2023-05-10T01:29:07;1.30;;;0.80;;
5801;SDS011;2927;49.366;8.530;2023-05-10T01:34:44;4.10;;;1.00;;
5801;SDS011;2927;49.366;8.530;2023-05-10T01:37:16;2.00;;;1.13;;
5801;SDS011;2927;49.366;8.530;2023-05-10T01:39:53;0.87;;;0.87;;
5801;SDS011;2927;49.366;8.530;2023-05-10T01:42:25;1.33;;;0.93;;
5801;SDS011;2927;49.366;8.530;2023-05-10T01:45:02;0.77;;;0.77;;
5801;SDS011;2927;49.366;8.530;2023-05-10T01:47:43;2.20;;;0.90;;
5801;SDS011;2927;49.366;8.530;2023-05-10T01:50:22;1.10;;;0.83;;
5801;SDS011;2927;49.366;8.530;2023-05-10T01:52:53;0.83;;;0.83;;
5801;SDS011;2927;49.366;8.530;2023-05-10T01:55:20;1.83;;;0.93;;
5801;SDS011;2927;49.366;8.530;2023-05-10T01:57:51;1.53;;;1.23;;
5801;SDS011;2927;49.366;8.530;2023-05-10T02:00:23;2.60;;;1.30;;
5801;SDS011;2927;49.366;8.530;2023-05-10T02:02:49;3.30;;;1.00;;
5801;SDS011;2927;49.366;8.530;2023-05-10T02:05:16;1.10;;;1.00;;
5801;SDS011;2927;49.366;8.530;2023-05-10T02:07:43;1.20;;;1.20;;
5801;SDS011;2927;49.366;8.530;2023-05-10T02:10:10;1.93;;;1.50;;
5801;SDS011;2927;49.366;8.530;2023-05-10T02:12:42;1.40;;;1.30;;
5801;SDS011;2927;49.366;8.530;2023-05-10T02:15:08;2.43;;;1.70;;
5801;SDS011;2927;49.366;8.530;2023-05-10T02:17:37;1.17;;;0.93;;
5801;SDS011;2927;49.366;8.530;2023-05-10T02:20:05;1.80;;;1.23;;
5801;SDS011;2927;49.366;8.530;2023-05-10T02:22:33;1.10;;;1.10;;
5801;SDS011;2927;49.366;8.530;2023-05-10T02:25:00;1.10;;;1.10;;
5801;SDS011;2927;49.366;8.530;2023-05-10T02:27:28;3.10;;;1.10;;
5801;SDS011;2927;49.366;8.530;2023-05-10T02:29:55;0.97;;;0.97;;
5801;SDS011;2927;49.366;8.530;2023-05-10T02:32:22;8.33;;;1.40;;
5801;SDS011;2927;49.366;8.530;2023-05-10T02:34:51;2.00;;;0.80;;
5801;SDS011;2927;49.366;8.530;2023-05-10T02:37:20;1.43;;;1.33;;
5801;SDS011;2927;49.366;8.530;2023-05-10T02:39:50;2.83;;;1.27;;
5801;SDS011;2927;49.366;8.530;2023-05-10T02:42:19;0.90;;;0.90;;
5801;SDS011;2927;49.366;8.530;2023-05-10T02:44:48;1.00;;;1.00;;
5801;SDS011;2927;49.366;8.530;2023-05-10T02:47:15;1.07;;;0.90;;
5801;SDS011;2927;49.366;8.530;2023-05-10T02:49:42;0.83;;;0.83;;
5801;SDS011;2927;49.366;8.530;2023-05-10T02:52:08;0.90;;;0.90;;
5801;SDS011;2927;49.366;8.530;2023-05-10T02:54:37;3.27;;;1.10;;
5801;SDS011;2927;49.366;8.530;2023-05-10T02:57:07;0.80;;;0.80;;
5801;SDS011;2927;49.366;8.530;2023-05-10T02:59:39;1.00;;;1.00;;
5801;SDS011;2927;49.366;8.530;2023-05-10T03:02:05;0.97;;;0.83;;
5801;SDS011;2927;49.366;8.530;2023-05-10T03:04:31;5.03;;;0.90;;
5801;SDS011;2927;49.366;8.530;2023-05-10T03:06:56;1.03;;;1.03;;
5801;SDS011;2927;49.366;8.530;2023-05-10T03:09:22;0.97;;;0.97;;
5801;SDS011;2927;49.366;8.530;2023-05-10T03:14:32;3.40;;;1.70;;
5801;SDS011;2927;49.366;8.530;2023-05-10T03:20:38;5.03;;;1.73;;
5801;SDS011;2927;49.366;8.530;2023-05-10T03:23:12;2.00;;;1.90;;
5801;SDS011;2927;49.366;8.530;2023-05-10T03:25:46;1.97;;;1.80;;
5801;SDS011;2927;49.366;8.530;2023-05-10T03:28:14;2.63;;;2.17;;
5801;SDS011;2927;49.366;8.530;2023-05-10T03:30:41;1.80;;;1.70;;
5801;SDS011;2927;49.366;8.530;2023-05-10T03:33:08;2.07;;;2.03;;
5801;SDS011;2927;49.366;8.530;2023-05-10T03:35:33;1.80;;;1.67;;
5801;SDS011;2927;49.366;8.530;2023-05-10T03:37:59;1.67;;;1.57;;
5801;SDS011;2927;49.366;8.530;2023-05-10T03:40:25;5.77;;;2.40;;
5801;SDS011;2927;49.366;8.530;2023-05-10T03:42:53;1.80;;;1.70;;
5801;SDS011;2927;49.366;8.530;2023-05-10T03:45:19;2.20;;;1.97;;
5801;SDS011;2927;49.366;8.530;2023-05-10T03:47:45;7.70;;;2.47;;
5801;SDS011;2927;49.366;8.530;2023-05-10T03:50:10;1.77;;;1.77;;
5801;SDS011;2927;49.366;8.530;2023-05-10T03:52:36;2.90;;;2.33;;
5801;SDS011;2927;49.366;8.530;2023-05-10T03:55:04;2.90;;;2.70;;
5801;SDS011;2927;49.366;8.530;2023-05-10T03:57:30;2.10;;;1.90;;
5801;SDS011;2927;49.366;8.530;2023-05-10T03:59:55;2.30;;;2.20;;
5801;SDS011;2927;49.366;8.530;2023-05-10T04:02:21;7.50;;;2.20;;
5801;SDS011;2927;49.366;8.530;2023-05-10T04:04:46;2.73;;;2.53;;
5801;SDS011;2927;49.366;8.530;2023-05-10T04:07:13;4.30;;;3.30;;
5801;SDS011;2927;49.366;8.530;2023-05-10T04:09:38;2.97;;;2.57;;
5801;SDS011;2927;49.366;8.530;2023-05-10T04:12:04;6.83;;;2.37;;
5801;SDS011;2927;49.366;8.530;2023-05-10T04:14:30;3.03;;;2.93;;
5801;SDS011;2927;49.366;8.530;2023-05-10T04:16:56;7.50;;;2.90;;
5801;SDS011;2927;49.366;8.530;2023-05-10T04:19:21;3.30;;;3.07;;
5801;SDS011;2927;49.366;8.530;2023-05-10T04:21:47;3.53;;;3.23;;
5801;SDS011;2927;49.366;8.530;2023-05-10T04:24:12;3.80;;;3.50;;
5801;SDS011;2927;49.366;8.530;2023-05-10T04:26:38;3.27;;;2.97;;
5801;SDS011;2927;49.366;8.530;2023-05-10T04:29:04;3.67;;;3.37;;
5801;SDS011;2927;49.366;8.530;2023-05-10T04:31:29;4.40;;;3.87;;
5801;SDS011;2927;49.366;8.530;2023-05-10T04:33:55;4.00;;;3.70;;
5801;SDS011;2927;49.366;8.530;2023-05-10T04:36:20;4.83;;;4.40;;
5801;SDS011;2927;49.366;8.530;2023-05-10T04:38:46;7.23;;;4.53;;
5801;SDS011;2927;49.366;8.530;2023-05-10T04:41:11;6.10;;;4.67;;
5801;SDS011;2927;49.366;8.530;2023-05-10T04:43:37;6.10;;;5.03;;
5801;SDS011;2927;49.366;8.530;2023-05-10T04:46:03;7.60;;;5.60;;
5801;SDS011;2927;49.366;8.530;2023-05-10T04:48:29;17.80;;;5.53;;
5801;SDS011;2927;49.366;8.530;2023-05-10T04:50:55;10.70;;;6.10;;
5801;SDS011;2927;49.366;8.530;2023-05-10T04:53:21;6.07;;;5.47;;
5801;SDS011;2927;49.366;8.530;2023-05-10T04:55:46;10.93;;;6.30;;
5801;SDS011;2927;49.366;8.530;2023-05-10T04:58:12;9.77;;;6.10;;
5801;SDS011;2927;49.366;8.530;2023-05-10T05:00:38;8.30;;;6.30;;
5801;SDS011;2927;49.366;8.530;2023-05-10T05:03:04;10.87;;;6.40;;
5801;SDS011;2927;49.366;8.530;2023-05-10T05:05:30;6.57;;;6.00;;
5801;SDS011;2927;49.366;8.530;2023-05-10T05:07:55;8.10;;;6.23;;
5801;SDS011;2927;49.366;8.530;2023-05-10T05:10:21;15.73;;;9.13;;
5801;SDS011;2927;49.366;8.530;2023-05-10T05:12:46;7.17;;;6.53;;
5801;SDS011;2927;49.366;8.530;2023-05-10T05:15:12;18.50;;;7.30;;
5801;SDS011;2927;49.366;8.530;2023-05-10T05:17:38;8.87;;;7.30;;
5801;SDS011;2927;49.366;8.530;2023-05-10T05:20:03;13.40;;;7.27;;
5801;SDS011;2927;49.366;8.530;2023-05-10T05:22:29;10.00;;;7.20;;
5801;SDS011;2927;49.366;8.530;2023-05-10T05:24:55;10.03;;;6.83;;
5801;SDS011;2927;49.366;8.530;2023-05-10T05:27:23;11.00;;;7.80;;
5801;SDS011;2927;49.366;8.530;2023-05-10T05:29:52;7.50;;;6.53;;
5801;SDS011;2927;49.366;8.530;2023-05-10T05:32:18;6.97;;;6.37;;
5801;SDS011;2927;49.366;8.530;2023-05-10T05:34:44;8.77;;;6.00;;
5801;SDS011;2927;49.366;8.530;2023-05-10T05:37:14;8.30;;;6.17;;
5801;SDS011;2927;49.366;8.530;2023-05-10T05:39:40;7.40;;;6.37;;
5801;SDS011;2927;49.366;8.530;2023-05-10T05:42:07;12.27;;;6.07;;
5801;SDS011;2927;49.366;8.530;2023-05-10T05:44:33;12.60;;;6.03;;
5801;SDS011;2927;49.366;8.530;2023-05-10T05:46:58;8.03;;;5.83;;
5801;SDS011;2927;49.366;8.530;2023-05-10T05:49:24;7.23;;;6.10;;
5801;SDS011;2927;49.366;8.530;2023-05-10T05:51:49;8.00;;;6.27;;
5801;SDS011;2927;49.366;8.530;2023-05-10T05:54:15;7.13;;;6.53;;
5801;SDS011;2927;49.366;8.530;2023-05-10T05:56:41;7.00;;;6.40;;
5801;SDS011;2927;49.366;8.530;2023-05-10T05:59:06;8.20;;;5.63;;
5801;SDS011;2927;49.366;8.530;2023-05-10T06:01:32;7.00;;;6.10;;
5801;SDS011;2927;49.366;8.530;2023-05-10T06:03:58;9.87;;;5.83;;
5801;SDS011;2927;49.366;8.530;2023-05-10T06:06:23;6.33;;;5.70;;
5801;SDS011;2927;49.366;8.530;2023-05-10T06:08:49;7.07;;;5.27;;
5801;SDS011;2927;49.366;8.530;2023-05-10T06:11:14;9.70;;;5.23;;
5801;SDS011;2927;49.366;8.530;2023-05-10T06:13:40;7.53;;;5.63;;
5801;SDS011;2927;49.366;8.530;2023-05-10T06:16:07;6.67;;;6.03;;
5801;SDS011;2927;49.366;8.530;2023-05-10T06:18:32;8.93;;;5.90;;
5801;SDS011;2927;49.366;8.530;2023-05-10T06:20:58;8.97;;;6.67;;
5801;SDS011;2927;49.366;8.530;2023-05-10T06:23:23;7.23;;;6.37;;
5801;SDS011;2927;49.366;8.530;2023-05-10T06:25:50;6.83;;;6.10;;
5801;SDS011;2927;49.366;8.530;2023-05-10T06:28:16;10.60;;;7.10;;
5801;SDS011;2927;49.366;8.530;2023-05-10T06:30:41;8.87;;;6.30;;
5801;SDS011;2927;49.366;8.530;2023-05-10T06:33:07;6.87;;;6.10;;
5801;SDS011;2927;49.366;8.530;2023-05-10T06:35:33;8.07;;;6.27;;
5801;SDS011;2927;49.366;8.530;2023-05-10T06:37:58;6.40;;;5.80;;
5801;SDS011;2927;49.366;8.530;2023-05-10T06:40:24;5.53;;;5.13;;
5801;SDS011;2927;49.366;8.530;2023-05-10T06:42:49;4.80;;;4.40;;
5801;SDS011;2927;49.366;8.530;2023-05-10T06:45:15;5.37;;;4.87;;
5801;SDS011;2927;49.366;8.530;2023-05-10T06:47:41;5.90;;;5.40;;
5801;SDS011;2927;49.366;8.530;2023-05-10T06:50:07;8.60;;;5.30;;
5801;SDS011;2927;49.366;8.530;2023-05-10T06:52:33;10.13;;;5.20;;
5801;SDS011;2927;49.366;8.530;2023-05-10T06:54:59;6.43;;;5.63;;
5801;SDS011;2927;49.366;8.530;2023-05-10T06:57:25;5.03;;;4.57;;
5801;SDS011;2927;49.366;8.530;2023-05-10T06:59:51;5.17;;;4.50;;
5801;SDS011;2927;49.366;8.530;2023-05-10T07:02:17;6.03;;;5.40;;
5801;SDS011;2927;49.366;8.530;2023-05-10T07:04:42;4.87;;;4.47;;
5801;SDS011;2927;49.366;8.530;2023-05-10T07:07:08;4.50;;;4.20;;
5801;SDS011;2927;49.366;8.530;2023-05-10T07:09:34;5.03;;;4.60;;
5801;SDS011;2927;49.366;8.530;2023-05-10T07:11:59;4.87;;;4.00;;
5801;SDS011;2927;49.366;8.530;2023-05-10T07:14:26;10.40;;;3.00;;
5801;SDS011;2927;49.366;8.530;2023-05-10T07:16:52;3.77;;;2.90;;
5801;SDS011;2927;49.366;8.530;2023-05-10T07:19:18;3.40;;;3.10;;
5801;SDS011;2927;49.366;8.530;2023-05-10T07:21:43;3.03;;;2.70;;
5801;SDS011;2927;49.366;8.530;2023-05-10T07:24:09;3.17;;;2.20;;
5801;SDS011;2927;49.366;8.530;2023-05-10T07:26:34;3.47;;;2.23;;
5801;SDS011;2927;49.366;8.530;2023-05-10T07:29:00;2.17;;;1.97;;
5801;SDS011;2927;49.366;8.530;2023-05-10T07:31:26;4.90;;;3.00;;
5801;SDS011;2927;49.366;8.530;2023-05-10T07:33:51;10.60;;;4.57;;
5801;SDS011;2927;49.366;8.530;2023-05-10T07:36:17;6.70;;;4.40;;
5801;SDS011;2927;49.366;8.530;2023-05-10T07:38:42;2.50;;;2.40;;
5801;SDS011;2927;49.366;8.530;2023-05-10T07:41:08;1.87;;;1.53;;
5801;SDS011;2927;49.366;8.530;2023-05-10T07:43:33;2.50;;;1.40;;
5801;SDS011;2927;49.366;8.530;2023-05-10T07:45:59;2.10;;;1.60;;
5801;SDS011;2927;49.366;8.530;2023-05-10T07:48:24;1.87;;;1.33;;
5801;SDS011;2927;49.366;8.530;2023-05-10T07:50:50;1.63;;;1.40;;
5801;SDS011;2927;49.366;8.530;2023-05-10T07:53:16;1.77;;;1.00;;
5801;SDS011;2927;49.366;8.530;2023-05-10T07:55:42;1.30;;;1.30;;
5801;SDS011;2927;49.366;8.530;2023-05-10T07:58:08;1.50;;;0.87;;
5801;SDS011;2927;49.366;8.530;2023-05-10T08:00:33;2.10;;;1.07;;
5801;SDS011;2927;49.366;8.530;2023-05-10T08:02:59;1.10;;;1.00;;
5801;SDS011;2927;49.366;8.530;2023-05-10T08:05:24;0.90;;;0.90;;
5801;SDS011;2927;49.366;8.530;2023-05-10T08:07:50;3.33;;;1.30;;
5801;SDS011;2927;49.366;8.530;2023-05-10T08:10:15;0.83;;;0.83;;
5801;SDS011;2927;49.366;8.530;2023-05-10T08:12:41;1.63;;;1.07;;
5801;SDS011;2927;49.366;8.530;2023-05-10T08:15:07;0.93;;;0.93;;
5801;SDS011;2927;49.366;8.530;2023-05-10T08:17:33;1.90;;;1.00;;
5801;SDS011;2927;49.366;8.530;2023-05-10T08:19:59;0.80;;;0.73;;
5801;SDS011;2927;49.366;8.530;2023-05-10T08:22:25;0.70;;;0.70;;
5801;SDS011;2927;49.366;8.530;2023-05-10T08:24:51;1.07;;;0.70;;
5801;SDS011;2927;49.366;8.530;2023-05-10T08:27:17;1.23;;;0.90;;
5801;SDS011;2927;49.366;8.530;2023-05-10T08:29:42;0.80;;;0.80;;
5801;SDS011;2927;49.366;8.530;2023-05-10T08:32:08;1.90;;;1.00;;
5801;SDS011;2927;49.366;8.530;2023-05-10T08:34:33;1.00;;;0.80;;
5801;SDS011;2927;49.366;8.530;2023-05-10T08:36:59;1.70;;;0.60;;
5801;SDS011;2927;49.366;8.530;2023-05-10T08:39:24;1.33;;;0.63;;
5801;SDS011;2927;49.366;8.530;2023-05-10T08:41:50;4.20;;;1.00;;
5801;SDS011;2927;49.366;8.530;2023-05-10T08:44:18;0.77;;;0.77;;
5801;SDS011;2927;49.366;8.530;2023-05-10T08:46:46;2.00;;;0.83;;
5801;SDS011;2927;49.366;8.530;2023-05-10T08:49:16;0.90;;;0.90;;
5801;SDS011;2927;49.366;8.530;2023-05-10T08:51:47;3.77;;;1.20;;
5801;SDS011;2927;49.366;8.530;2023-05-10T08:54:16;0.80;;;0.67;;
5801;SDS011;2927;49.366;8.530;2023-05-10T08:56:42;0.97;;;0.80;;
5801;SDS011;2927;49.366;8.530;2023-05-10T08:59:07;2.57;;;0.93;;
5801;SDS011;2927;49.366;8.530;2023-05-10T09:01:33;1.60;;;1.00;;
5801;SDS011;2927;49.366;8.530;2023-05-10T09:04:01;2.87;;;1.00;;
5801;SDS011;2927;49.366;8.530;2023-05-10T09:06:27;1.83;;;0.80;;
5801;SDS011;2927;49.366;8.530;2023-05-10T09:08:53;3.20;;;0.90;;
5801;SDS011;2927;49.366;8.530;2023-05-10T09:11:19;3.13;;;0.77;;
5801;SDS011;2927;49.366;8.530;2023-05-10T09:13:46;1.83;;;0.70;;
5801;SDS011;2927;49.366;8.530;2023-05-10T09:16:13;1.43;;;0.80;;
5801;SDS011;2927;49.366;8.530;2023-05-10T09:18:38;0.77;;;0.60;;
5801;SDS011;2927;49.366;8.530;2023-05-10T09:21:04;1.50;;;0.70;;
5801;SDS011;2927;49.366;8.530;2023-05-10T09:23:30;1.70;;;0.63;;
5801;SDS011;2927;49.366;8.530;2023-05-10T09:26:03;1.83;;;0.77;;
5801;SDS011;2927;49.366;8.530;2023-05-10T09:29:03;1.80;;;0.93;;
5801;SDS011;2927;49.366;8.530;2023-05-10T09:31:24;0.70;;;0.70;;
5801;SDS011;2927;49.366;8.530;2023-05-10T09:34:07;2.10;;;0.60;;
5801;SDS011;2927;49.366;8.530;2023-05-10T09:36:33;0.80;;;0.80;;
5801;SDS011;2927;49.366;8.530;2023-05-10T09:38:58;0.60;;;0.50;;
5801;SDS011;2927;49.366;8.530;2023-05-10T09:41:24;1.10;;;0.70;;
5801;SDS011;2927;49.366;8.530;2023-05-10T09:43:50;4.30;;;1.07;;
5801;SDS011;2927;49.366;8.530;2023-05-10T09:46:21;1.23;;;0.50;;
5801;SDS011;2927;49.366;8.530;2023-05-10T09:48:47;2.60;;;0.70;;
5801;SDS011;2927;49.366;8.530;2023-05-10T09:51:19;0.57;;;0.57;;
5801;SDS011;2927;49.366;8.530;2023-05-10T09:53:45;0.90;;;0.60;;
5801;SDS011;2927;49.366;8.530;2023-05-10T09:56:11;3.70;;;0.67;;
5801;SDS011;2927;49.366;8.530;2023-05-10T09:58:36;0.87;;;0.60;;
5801;SDS011;2927;49.366;8.530;2023-05-10T10:01:10;10.10;;;0.67;;
5801;SDS011;2927;49.366;8.530;2023-05-10T10:03:40;1.07;;;0.60;;
5801;SDS011;2927;49.366;8.530;2023-05-10T10:06:07;0.63;;;0.60;;
5801;SDS011;2927;49.366;8.530;2023-05-10T10:08:33;0.50;;;0.50;;
5801;SDS011;2927;49.366;8.530;2023-05-10T10:10:59;0.50;;;0.40;;
5801;SDS011;2927;49.366;8.530;2023-05-10T10:13:25;1.50;;;0.60;;
5801;SDS011;2927;49.366;8.530;2023-05-10T10:15:51;0.40;;;0.40;;
5801;SDS011;2927;49.366;8.530;2023-05-10T10:18:18;0.90;;;0.60;;
5801;SDS011;2927;49.366;8.530;2023-05-10T10:20:48;0.90;;;0.80;;
5801;SDS011;2927;49.366;8.530;2023-05-10T10:23:14;1.90;;;0.53;;
5801;SDS011;2927;49.366;8.530;2023-05-10T10:25:40;1.07;;;0.70;;
5801;SDS011;2927;49.366;8.530;2023-05-10T10:28:12;0.93;;;0.80;;
5801;SDS011;2927;49.366;8.530;2023-05-10T10:30:41;3.77;;;0.70;;
5801;SDS011;2927;49.366;8.530;2023-05-10T10:35:58;0.70;;;0.50;;
5801;SDS011;2927;49.366;8.530;2023-05-10T10:38:25;1.00;;;0.80;;
5801;SDS011;2927;49.366;8.530;2023-05-10T10:41:03;0.50;;;0.40;;
5801;SDS011;2927;49.366;8.530;2023-05-10T10:43:35;0.70;;;0.60;;
5801;SDS011;2927;49.366;8.530;2023-05-10T10:46:13;0.57;;;0.57;;
5801;SDS011;2927;49.366;8.530;2023-05-10T10:48:40;0.83;;;0.73;;
5801;SDS011;2927;49.366;8.530;2023-05-10T10:51:11;0.67;;;0.67;;
5801;SDS011;2927;49.366;8.530;2023-05-10T10:53:39;1.93;;;0.63;;
5801;SDS011;2927;49.366;8.530;2023-05-10T10:56:09;1.10;;;0.80;;
5801;SDS011;2927;49.366;8.530;2023-05-10T10:58:40;2.60;;;0.80;;
5801;SDS011;2927;49.366;8.530;2023-05-10T11:01:24;1.57;;;0.60;;
5801;SDS011;2927;49.366;8.530;2023-05-10T11:08:59;1.83;;;0.90;;
5801;SDS011;2927;49.366;8.530;2023-05-10T11:11:30;5.03;;;0.57;;
5801;SDS011;2927;49.366;8.530;2023-05-10T11:13:56;1.17;;;0.57;;
5801;SDS011;2927;49.366;8.530;2023-05-10T11:16:28;1.83;;;0.60;;
5801;SDS011;2927;49.366;8.530;2023-05-10T11:19:08;2.00;;;0.73;;
5801;SDS011;2927;49.366;8.530;2023-05-10T11:21:45;3.40;;;0.50;;
5801;SDS011;2927;49.366;8.530;2023-05-10T11:24:16;1.73;;;0.40;;
5801;SDS011;2927;49.366;8.530;2023-05-10T11:26:43;1.57;;;0.70;;
5801;SDS011;2927;49.366;8.530;2023-05-10T11:29:09;1.00;;;1.00;;
5801;SDS011;2927;49.366;8.530;2023-05-10T11:31:35;0.90;;;0.60;;
5801;SDS011;2927;49.366;8.530;2023-05-10T11:34:08;0.60;;;0.60;;
5801;SDS011;2927;49.366;8.530;2023-05-10T11:36:35;0.57;;;0.50;;
5801;SDS011;2927;49.366;8.530;2023-05-10T11:39:01;2.10;;;0.70;;
5801;SDS011;2927;49.366;8.530;2023-05-10T11:41:28;1.20;;;0.80;;
5801;SDS011;2927;49.366;8.530;2023-05-10T11:43:55;2.40;;;0.73;;
5801;SDS011;2927;49.366;8.530;2023-05-10T11:46:22;0.50;;;0.50;;
5801;SDS011;2927;49.366;8.530;2023-05-10T11:48:50;5.20;;;0.77;;
5801;SDS011;2927;49.366;8.530;2023-05-10T11:51:21;4.40;;;0.80;;
5801;SDS011;2927;49.366;8.530;2023-05-10T11:53:47;1.60;;;0.60;;
5801;SDS011;2927;49.366;8.530;2023-05-10T11:56:13;3.03;;;0.60;;
5801;SDS011;2927;49.366;8.530;2023-05-10T11:58:39;3.47;;;0.70;;
5801;SDS011;2927;49.366;8.530;2023-05-10T12:01:05;3.63;;;0.80;;
5801;SDS011;2927;49.366;8.530;2023-05-10T12:03:32;2.60;;;1.00;;
5801;SDS011;2927;49.366;8.530;2023-05-10T12:06:00;2.87;;;0.60;;
5801;SDS011;2927;49.366;8.530;2023-05-10T12:08:27;2.90;;;0.83;;
5801;SDS011;2927;49.366;8.530;2023-05-10T12:11:03;4.43;;;0.90;;
5801;SDS011;2927;49.366;8.530;2023-05-10T12:13:30;0.70;;;0.70;;
5801;SDS011;2927;49.366;8.530;2023-05-10T12:15:59;2.73;;;1.00;;
5801;SDS011;2927;49.366;8.530;2023-05-10T12:18:25;1.10;;;0.70;;
5801;SDS011;2927;49.366;8.530;2023-05-10T12:20:53;3.90;;;1.03;;
5801;SDS011;2927;49.366;8.530;2023-05-10T12:23:19;1.80;;;0.80;;
5801;SDS011;2927;49.366;8.530;2023-05-10T12:25:45;6.37;;;1.57;;
5801;SDS011;2927;49.366;8.530;2023-05-10T12:28:11;7.63;;;1.27;;
5801;SDS011;2927;49.366;8.530;2023-05-10T12:30:37;3.73;;;0.80;;
5801;SDS011;2927;49.366;8.530;2023-05-10T12:33:07;1.40;;;0.53;;
5801;SDS011;2927;49.366;8.530;2023-05-10T12:35:45;5.47;;;0.40;;
5801;SDS011;2927;49.366;8.530;2023-05-10T12:38:26;4.13;;;0.67;;
5801;SDS011;2927;49.366;8.530;2023-05-10T12:40:59;2.13;;;0.60;;
5801;SDS011;2927;49.366;8.530;2023-05-10T12:43:26;0.80;;;0.80;;
5801;SDS011;2927;49.366;8.530;2023-05-10T12:45:52;3.77;;;0.60;;
5801;SDS011;2927;49.366;8.530;2023-05-10T12:48:17;3.03;;;0.70;;
5801;SDS011;2927;49.366;8.530;2023-05-10T12:50:43;3.20;;;0.50;;
5801;SDS011;2927;49.366;8.530;2023-05-10T12:53:08;2.77;;;0.53;;
5801;SDS011;2927;49.366;8.530;2023-05-10T12:55:34;2.20;;;0.60;;
5801;SDS011;2927;49.366;8.530;2023-05-10T12:58:00;1.37;;;0.60;;
5801;SDS011;2927;49.366;8.530;2023-05-10T13:00:25;1.83;;;0.80;;
5801;SDS011;2927;49.366;8.530;2023-05-10T13:02:51;1.47;;;0.50;;
5801;SDS011;2927;49.366;8.530;2023-05-10T13:05:17;1.00;;;0.63;;
5801;SDS011;2927;49.366;8.530;2023-05-10T13:07:42;0.90;;;0.60;;
5801;SDS011;2927;49.366;8.530;2023-05-10T13:10:09;3.40;;;0.73;;
5801;SDS011;2927;49.366;8.530;2023-05-10T13:12:35;2.03;;;0.50;;
5801;SDS011;2927;49.366;8.530;2023-05-10T13:15:01;3.37;;;0.47;;
5801;SDS011;2927;49.366;8.530;2023-05-10T13:17:28;1.17;;;0.60;;
5801;SDS011;2927;49.366;8.530;2023-05-10T13:19:53;0.50;;;0.40;;
5801;SDS011;2927;49.366;8.530;2023-05-10T13:22:19;1.70;;;0.90;;
5801;SDS011;2927;49.366;8.530;2023-05-10T13:24:44;1.77;;;0.63;;
5801;SDS011;2927;49.366;8.530;2023-05-10T13:27:10;3.03;;;0.70;;
5801;SDS011;2927;49.366;8.530;2023-05-10T13:29:36;1.43;;;0.50;;
5801;SDS011;2927;49.366;8.530;2023-05-10T13:32:01;1.57;;;0.40;;
5801;SDS011;2927;49.366;8.530;2023-05-10T13:34:27;3.50;;;0.50;;
5801;SDS011;2927;49.366;8.530;2023-05-10T13:36:53;3.23;;;0.60;;
5801;SDS011;2927;49.366;8.530;2023-05-10T13:39:19;4.43;;;1.33;;
5801;SDS011;2927;49.366;8.530;2023-05-10T13:41:45;0.70;;;0.33;;
5801;SDS011;2927;49.366;8.530;2023-05-10T13:44:12;2.73;;;0.60;;
5801;SDS011;2927;49.366;8.530;2023-05-10T13:46:38;0.93;;;0.53;;
5801;SDS011;2927;49.366;8.530;2023-05-10T13:49:04;2.70;;;0.73;;
5801;SDS011;2927;49.366;8.530;2023-05-10T13:51:30;1.10;;;0.60;;
5801;SDS011;2927;49.366;8.530;2023-05-10T13:53:56;1.70;;;0.40;;
5801;SDS011;2927;49.366;8.530;2023-05-10T13:56:22;0.90;;;0.40;;
5801;SDS011;2927;49.366;8.530;2023-05-10T13:58:48;2.10;;;0.60;;
5801;SDS011;2927;49.366;8.530;2023-05-10T14:01:14;3.60;;;0.40;;
5801;SDS011;2927;49.366;8.530;2023-05-10T14:03:39;1.37;;;0.60;;
5801;SDS011;2927;49.366;8.530;2023-05-10T14:06:05;3.63;;;0.63;;
5801;SDS011;2927;49.366;8.530;2023-05-10T14:08:32;2.93;;;0.53;;
5801;SDS011;2927;49.366;8.530;2023-05-10T14:10:58;0.70;;;0.43;;
5801;SDS011;2927;49.366;8.530;2023-05-10T14:13:23;0.90;;;0.60;;
5801;SDS011;2927;49.366;8.530;2023-05-10T14:15:49;2.20;;;0.60;;
5801;SDS011;2927;49.366;8.530;2023-05-10T14:18:15;1.17;;;0.50;;
5801;SDS011;2927;49.366;8.530;2023-05-10T14:20:41;2.10;;;0.40;;
5801;SDS011;2927;49.366;8.530;2023-05-10T14:23:06;3.20;;;0.57;;
5801;SDS011;2927;49.366;8.530;2023-05-10T14:25:32;1.43;;;0.50;;
5801;SDS011;2927;49.366;8.530;2023-05-10T14:27:59;3.83;;;0.63;;
5801;SDS011;2927;49.366;8.530;2023-05-10T14:30:25;3.03;;;0.53;;
5801;SDS011;2927;49.366;8.530;2023-05-10T14:32:50;1.17;;;0.60;;
5801;SDS011;2927;49.366;8.530;2023-05-10T14:35:17;2.20;;;0.70;;
5801;SDS011;2927;49.366;8.530;2023-05-10T14:37:43;1.70;;;0.40;;
5801;SDS011;2927;49.366;8.530;2023-05-10T14:40:08;0.80;;;0.40;;
5801;SDS011;2927;49.366;8.530;2023-05-10T14:42:34;1.80;;;0.60;;
5801;SDS011;2927;49.366;8.530;2023-05-10T14:45:00;2.00;;;0.40;;
5801;SDS011;2927;49.366;8.530;2023-05-10T14:47:25;0.83;;;0.30;;
5801;SDS011;2927;49.366;8.530;2023-05-10T14:49:51;1.73;;;0.50;;
5801;SDS011;2927;49.366;8.530;2023-05-10T15:05:13;7.70;;;0.73;;
5801;SDS011;2927;49.366;8.530;2023-05-10T15:07:39;1.03;;;0.40;;
5801;SDS011;2927;49.366;8.530;2023-05-10T15:10:05;0.80;;;0.40;;
5801;SDS011;2927;49.366;8.530;2023-05-10T15:12:31;1.43;;;0.57;;
5801;SDS011;2927;49.366;8.530;2023-05-10T15:14:57;2.07;;;0.60;;
5801;SDS011;2927;49.366;8.530;2023-05-10T15:17:22;0.57;;;0.50;;
5801;SDS011;2927;49.366;8.530;2023-05-10T15:19:48;1.43;;;0.50;;
5801;SDS011;2927;49.366;8.530;2023-05-10T15:22:14;2.07;;;0.73;;
5801;SDS011;2927;49.366;8.530;2023-05-10T15:24:40;1.60;;;0.50;;
5801;SDS011;2927;49.366;8.530;2023-05-10T15:27:05;0.60;;;0.43;;
5801;SDS011;2927;49.366;8.530;2023-05-10T15:29:31;1.17;;;0.67;;
5801;SDS011;2927;49.366;8.530;2023-05-10T15:31:57;0.90;;;0.40;;
5801;SDS011;2927;49.366;8.530;2023-05-10T15:34:22;1.63;;;0.40;;
5801;SDS011;2927;49.366;8.530;2023-05-10T15:36:48;1.07;;;0.40;;
5801;SDS011;2927;49.366;8.530;2023-05-10T15:39:14;3.27;;;0.40;;
5801;SDS011;2927;49.366;8.530;2023-05-10T15:41:39;1.70;;;0.37;;
5801;SDS011;2927;49.366;8.530;2023-05-10T15:44:05;2.23;;;0.50;;
5801;SDS011;2927;49.366;8.530;2023-05-10T15:46:31;6.73;;;0.40;;